sensor_id;sensor_type;location;lat;lon;timestamp;P1;durP1;ratioP1;P2;durP2;ratioP2
52590;SDS011;38483;42.620;25.394;2023-02-01T00:00:56;7.23;;;4.40;;
52590;SDS011;38483;42.620;25.394;2023-02-01T00:03:23;4.63;;;4.10;;
52590;SDS011;38483;42.620;25.394;2023-02-01T00:05:57;5.00;;;3.70;;
52590;SDS011;38483;42.620;25.394;2023-02-01T00:08:25;3.80;;;3.23;;
52590;SDS011;38483;42.620;25.394;2023-02-01T00:11:01;6.13;;;3.37;;
52590;SDS011;38483;42.620;25.394;2023-02-01T00:13:31;4.47;;;3.03;;
52590;SDS011;38483;42.620;25.394;2023-02-01T00:16:05;4.57;;;2.97;;
52590;SDS011;38483;42.620;25.394;2023-02-01T00:18:33;5.53;;;3.03;;
52590;SDS011;38483;42.620;25.394;2023-02-01T00:21:01;3.90;;;2.83;;
52590;SDS011;38483;42.620;25.394;2023-02-01T00:23:31;5.80;;;3.23;;
52590;SDS011;38483;42.620;25.394;2023-02-01T00:26:00;4.23;;;3.40;;
52590;SDS011;38483;42.620;25.394;2023-02-01T00:28:28;10.03;;;3.67;;
52590;SDS011;38483;42.620;25.394;2023-02-01T00:30:56;5.30;;;3.80;;
52590;SDS011;38483;42.620;25.394;2023-02-01T00:33:24;5.70;;;4.13;;
52590;SDS011;38483;42.620;25.394;2023-02-01T00:35:51;4.80;;;3.70;;
52590;SDS011;38483;42.620;25.394;2023-02-01T00:38:22;6.47;;;4.10;;
52590;SDS011;38483;42.620;25.394;2023-02-01T00:40:50;6.63;;;4.00;;
52590;SDS011;38483;42.620;25.394;2023-02-01T00:43:16;6.63;;;4.37;;
52590;SDS011;38483;42.620;25.394;2023-02-01T00:45:45;6.10;;;3.83;;
52590;SDS011;38483;42.620;25.394;2023-02-01T00:48:12;8.17;;;4.13;;
52590;SDS011;38483;42.620;25.394;2023-02-01T00:50:42;4.70;;;3.50;;
52590;SDS011;38483;42.620;25.394;2023-02-01T00:53:10;4.53;;;3.53;;
52590;SDS011;38483;42.620;25.394;2023-02-01T00:55:37;5.80;;;3.90;;
52590;SDS011;38483;42.620;25.394;2023-02-01T00:58:05;5.07;;;4.23;;
52590;SDS011;38483;42.620;25.394;2023-02-01T01:00:36;6.40;;;4.70;;
52590;SDS011;38483;42.620;25.394;2023-02-01T01:03:04;7.27;;;4.23;;
52590;SDS011;38483;42.620;25.394;2023-02-01T01:05:44;6.80;;;4.83;;
52590;SDS011;38483;42.620;25.394;2023-02-01T01:08:15;7.27;;;4.97;;
52590;SDS011;38483;42.620;25.394;2023-02-01T01:10:42;6.40;;;4.53;;
52590;SDS011;38483;42.620;25.394;2023-02-01T01:13:10;7.00;;;4.43;;
52590;SDS011;38483;42.620;25.394;2023-02-01T01:15:38;5.57;;;3.43;;
52590;SDS011;38483;42.620;25.394;2023-02-01T01:18:06;3.47;;;3.00;;
52590;SDS011;38483;42.620;25.394;2023-02-01T01:20:34;5.30;;;3.30;;
52590;SDS011;38483;42.620;25.394;2023-02-01T01:23:02;4.73;;;2.93;;
52590;SDS011;38483;42.620;25.394;2023-02-01T01:25:30;5.67;;;3.50;;
52590;SDS011;38483;42.620;25.394;2023-02-01T01:27:57;5.57;;;3.30;;
52590;SDS011;38483;42.620;25.394;2023-02-01T01:30:24;7.30;;;4.10;;
52590;SDS011;38483;42.620;25.394;2023-02-01T01:32:51;5.03;;;3.30;;
52590;SDS011;38483;42.620;25.394;2023-02-01T01:35:18;6.43;;;3.93;;
52590;SDS011;38483;42.620;25.394;2023-02-01T01:37:45;5.00;;;3.53;;
52590;SDS011;38483;42.620;25.394;2023-02-01T01:40:13;4.57;;;3.00;;
52590;SDS011;38483;42.620;25.394;2023-02-01T01:42:41;4.30;;;2.60;;
52590;SDS011;38483;42.620;25.394;2023-02-01T01:45:22;3.57;;;3.00;;
52590;SDS011;38483;42.620;25.394;2023-02-01T01:48:06;3.90;;;2.60;;
52590;SDS011;38483;42.620;25.394;2023-02-01T01:50:40;5.67;;;2.87;;
52590;SDS011;38483;42.620;25.394;2023-02-01T01:53:08;4.47;;;3.37;;
52590;SDS011;38483;42.620;25.394;2023-02-01T01:55:41;4.03;;;3.33;;
52590;SDS011;38483;42.620;25.394;2023-02-01T01:58:12;2.80;;;2.50;;
52590;SDS011;38483;42.620;25.394;2023-02-01T02:00:44;3.93;;;2.40;;
52590;SDS011;38483;42.620;25.394;2023-02-01T02:06:16;4.40;;;3.33;;
52590;SDS011;38483;42.620;25.394;2023-02-01T02:08:53;4.33;;;3.40;;
52590;SDS011;38483;42.620;25.394;2023-02-01T02:11:20;4.57;;;3.30;;
52590;SDS011;38483;42.620;25.394;2023-02-01T02:13:51;5.47;;;2.90;;
52590;SDS011;38483;42.620;25.394;2023-02-01T02:16:31;3.93;;;2.50;;
52590;SDS011;38483;42.620;25.394;2023-02-01T02:22:44;3.70;;;2.57;;
52590;SDS011;38483;42.620;25.394;2023-02-01T02:44:57;3.57;;;2.67;;
52590;SDS011;38483;42.620;25.394;2023-02-01T02:50:57;3.97;;;3.20;;
52590;SDS011;38483;42.620;25.394;2023-02-01T02:54:10;4.90;;;3.57;;
52590;SDS011;38483;42.620;25.394;2023-02-01T02:57:00;5.03;;;3.00;;
52590;SDS011;38483;42.620;25.394;2023-02-01T02:59:50;3.53;;;2.23;;
52590;SDS011;38483;42.620;25.394;2023-02-01T03:02:37;2.57;;;2.30;;
52590;SDS011;38483;42.620;25.394;2023-02-01T03:05:24;2.57;;;2.27;;
52590;SDS011;38483;42.620;25.394;2023-02-01T03:08:11;2.67;;;2.30;;
52590;SDS011;38483;42.620;25.394;2023-02-01T03:11:09;3.10;;;2.00;;
52590;SDS011;38483;42.620;25.394;2023-02-01T03:13:58;1.97;;;1.70;;
52590;SDS011;38483;42.620;25.394;2023-02-01T03:16:33;3.90;;;2.07;;
52590;SDS011;38483;42.620;25.394;2023-02-01T03:19:24;3.53;;;2.27;;
52590;SDS011;38483;42.620;25.394;2023-02-01T03:21:57;2.73;;;1.90;;
52590;SDS011;38483;42.620;25.394;2023-02-01T03:27:13;3.50;;;1.63;;
52590;SDS011;38483;42.620;25.394;2023-02-01T03:29:49;2.03;;;1.87;;
52590;SDS011;38483;42.620;25.394;2023-02-01T03:32:22;2.17;;;1.70;;
52590;SDS011;38483;42.620;25.394;2023-02-01T03:34:49;2.07;;;1.70;;
52590;SDS011;38483;42.620;25.394;2023-02-01T03:37:21;3.47;;;1.97;;
52590;SDS011;38483;42.620;25.394;2023-02-01T03:39:59;3.23;;;1.87;;
52590;SDS011;38483;42.620;25.394;2023-02-01T03:42:34;4.33;;;1.93;;
52590;SDS011;38483;42.620;25.394;2023-02-01T03:47:39;3.30;;;2.27;;
52590;SDS011;38483;42.620;25.394;2023-02-01T03:50:10;4.20;;;1.80;;
52590;SDS011;38483;42.620;25.394;2023-02-01T03:52:50;2.13;;;1.57;;
52590;SDS011;38483;42.620;25.394;2023-02-01T03:55:22;4.70;;;1.67;;
52590;SDS011;38483;42.620;25.394;2023-02-01T03:58:00;2.00;;;1.80;;
52590;SDS011;38483;42.620;25.394;2023-02-01T04:00:40;3.63;;;2.07;;
52590;SDS011;38483;42.620;25.394;2023-02-01T04:03:11;3.00;;;1.80;;
52590;SDS011;38483;42.620;25.394;2023-02-01T04:05:38;4.33;;;2.67;;
52590;SDS011;38483;42.620;25.394;2023-02-01T04:08:07;4.00;;;2.20;;
52590;SDS011;38483;42.620;25.394;2023-02-01T04:10:33;3.97;;;2.40;;
52590;SDS011;38483;42.620;25.394;2023-02-01T04:13:00;3.60;;;2.10;;
52590;SDS011;38483;42.620;25.394;2023-02-01T04:15:27;4.93;;;3.00;;
52590;SDS011;38483;42.620;25.394;2023-02-01T04:17:54;6.40;;;3.60;;
52590;SDS011;38483;42.620;25.394;2023-02-01T04:20:22;5.27;;;3.13;;
52590;SDS011;38483;42.620;25.394;2023-02-01T04:22:49;4.53;;;2.60;;
52590;SDS011;38483;42.620;25.394;2023-02-01T04:25:16;2.37;;;1.90;;
52590;SDS011;38483;42.620;25.394;2023-02-01T04:27:45;4.57;;;2.70;;
52590;SDS011;38483;42.620;25.394;2023-02-01T04:30:13;4.30;;;2.27;;
52590;SDS011;38483;42.620;25.394;2023-02-01T04:32:40;7.03;;;2.97;;
52590;SDS011;38483;42.620;25.394;2023-02-01T04:35:07;7.00;;;4.20;;
52590;SDS011;38483;42.620;25.394;2023-02-01T04:37:34;3.17;;;2.47;;
52590;SDS011;38483;42.620;25.394;2023-02-01T04:40:01;2.97;;;2.20;;
52590;SDS011;38483;42.620;25.394;2023-02-01T04:42:30;3.93;;;2.70;;
52590;SDS011;38483;42.620;25.394;2023-02-01T04:44:57;4.40;;;2.40;;
52590;SDS011;38483;42.620;25.394;2023-02-01T04:47:24;6.77;;;4.57;;
52590;SDS011;38483;42.620;25.394;2023-02-01T04:49:51;3.33;;;2.40;;
52590;SDS011;38483;42.620;25.394;2023-02-01T04:52:18;4.50;;;2.57;;
52590;SDS011;38483;42.620;25.394;2023-02-01T04:54:44;7.17;;;3.40;;
52590;SDS011;38483;42.620;25.394;2023-02-01T04:57:11;4.57;;;2.37;;
52590;SDS011;38483;42.620;25.394;2023-02-01T04:59:39;5.37;;;1.97;;
52590;SDS011;38483;42.620;25.394;2023-02-01T05:02:06;3.80;;;2.10;;
52590;SDS011;38483;42.620;25.394;2023-02-01T05:04:33;3.10;;;2.20;;
52590;SDS011;38483;42.620;25.394;2023-02-01T05:07:00;3.27;;;2.63;;
52590;SDS011;38483;42.620;25.394;2023-02-01T05:09:27;2.80;;;2.10;;
52590;SDS011;38483;42.620;25.394;2023-02-01T05:11:54;3.27;;;2.33;;
52590;SDS011;38483;42.620;25.394;2023-02-01T05:14:40;2.47;;;2.17;;
52590;SDS011;38483;42.620;25.394;2023-02-01T05:17:06;5.37;;;2.17;;
52590;SDS011;38483;42.620;25.394;2023-02-01T05:19:33;3.67;;;2.50;;
52590;SDS011;38483;42.620;25.394;2023-02-01T05:22:00;3.50;;;2.90;;
52590;SDS011;38483;42.620;25.394;2023-02-01T05:24:27;3.03;;;2.73;;
52590;SDS011;38483;42.620;25.394;2023-02-01T05:26:54;3.87;;;3.00;;
52590;SDS011;38483;42.620;25.394;2023-02-01T05:29:21;6.73;;;3.20;;
52590;SDS011;38483;42.620;25.394;2023-02-01T05:31:48;4.03;;;3.03;;
52590;SDS011;38483;42.620;25.394;2023-02-01T05:34:16;3.90;;;2.67;;
52590;SDS011;38483;42.620;25.394;2023-02-01T05:36:43;3.97;;;2.50;;
52590;SDS011;38483;42.620;25.394;2023-02-01T05:39:10;4.13;;;2.53;;
52590;SDS011;38483;42.620;25.394;2023-02-01T05:41:37;6.30;;;2.50;;
52590;SDS011;38483;42.620;25.394;2023-02-01T05:44:04;2.87;;;2.27;;
52590;SDS011;38483;42.620;25.394;2023-02-01T05:46:34;2.87;;;2.30;;
52590;SDS011;38483;42.620;25.394;2023-02-01T05:49:02;2.80;;;2.13;;
52590;SDS011;38483;42.620;25.394;2023-02-01T05:51:30;3.87;;;2.97;;
52590;SDS011;38483;42.620;25.394;2023-02-01T05:53:57;3.53;;;2.53;;
52590;SDS011;38483;42.620;25.394;2023-02-01T05:56:24;8.47;;;3.53;;
52590;SDS011;38483;42.620;25.394;2023-02-01T05:58:50;6.00;;;3.40;;
52590;SDS011;38483;42.620;25.394;2023-02-01T06:01:17;3.40;;;2.77;;
52590;SDS011;38483;42.620;25.394;2023-02-01T06:03:44;3.00;;;2.27;;
52590;SDS011;38483;42.620;25.394;2023-02-01T06:06:11;6.00;;;3.37;;
52590;SDS011;38483;42.620;25.394;2023-02-01T06:08:38;4.63;;;2.67;;
52590;SDS011;38483;42.620;25.394;2023-02-01T06:11:09;3.53;;;2.93;;
52590;SDS011;38483;42.620;25.394;2023-02-01T06:13:38;4.43;;;2.60;;
52590;SDS011;38483;42.620;25.394;2023-02-01T06:16:05;4.23;;;2.33;;
52590;SDS011;38483;42.620;25.394;2023-02-01T06:18:34;4.57;;;2.50;;
52590;SDS011;38483;42.620;25.394;2023-02-01T06:21:02;4.83;;;3.23;;
52590;SDS011;38483;42.620;25.394;2023-02-01T06:23:29;7.93;;;4.30;;
52590;SDS011;38483;42.620;25.394;2023-02-01T06:25:58;6.07;;;3.47;;
52590;SDS011;38483;42.620;25.394;2023-02-01T06:28:27;6.07;;;3.47;;
52590;SDS011;38483;42.620;25.394;2023-02-01T06:30:54;5.10;;;3.23;;
52590;SDS011;38483;42.620;25.394;2023-02-01T06:33:22;11.17;;;7.03;;
52590;SDS011;38483;42.620;25.394;2023-02-01T06:35:49;9.20;;;4.93;;
52590;SDS011;38483;42.620;25.394;2023-02-01T06:38:23;12.50;;;5.00;;
52590;SDS011;38483;42.620;25.394;2023-02-01T06:40:53;22.17;;;12.47;;
52590;SDS011;38483;42.620;25.394;2023-02-01T06:43:22;15.73;;;10.23;;
52590;SDS011;38483;42.620;25.394;2023-02-01T06:45:50;12.80;;;6.00;;
52590;SDS011;38483;42.620;25.394;2023-02-01T06:48:18;9.43;;;5.63;;
52590;SDS011;38483;42.620;25.394;2023-02-01T06:50:45;9.73;;;6.83;;
52590;SDS011;38483;42.620;25.394;2023-02-01T06:53:12;11.13;;;8.10;;
52590;SDS011;38483;42.620;25.394;2023-02-01T06:55:39;9.87;;;6.10;;
52590;SDS011;38483;42.620;25.394;2023-02-01T06:58:06;10.90;;;6.63;;
52590;SDS011;38483;42.620;25.394;2023-02-01T07:00:33;8.07;;;6.20;;
52590;SDS011;38483;42.620;25.394;2023-02-01T07:03:00;6.93;;;4.83;;
52590;SDS011;38483;42.620;25.394;2023-02-01T07:05:28;9.17;;;5.50;;
52590;SDS011;38483;42.620;25.394;2023-02-01T07:07:55;9.80;;;5.87;;
52590;SDS011;38483;42.620;25.394;2023-02-01T07:10:23;9.07;;;5.47;;
52590;SDS011;38483;42.620;25.394;2023-02-01T07:12:50;10.43;;;6.83;;
52590;SDS011;38483;42.620;25.394;2023-02-01T07:15:17;9.80;;;6.83;;
52590;SDS011;38483;42.620;25.394;2023-02-01T07:17:44;16.40;;;9.57;;
52590;SDS011;38483;42.620;25.394;2023-02-01T07:20:12;8.77;;;6.83;;
52590;SDS011;38483;42.620;25.394;2023-02-01T07:22:39;9.57;;;6.00;;
52590;SDS011;38483;42.620;25.394;2023-02-01T07:25:07;5.77;;;3.63;;
52590;SDS011;38483;42.620;25.394;2023-02-01T07:27:34;6.17;;;4.67;;
52590;SDS011;38483;42.620;25.394;2023-02-01T07:30:03;8.27;;;4.83;;
52590;SDS011;38483;42.620;25.394;2023-02-01T07:32:31;12.67;;;7.00;;
52590;SDS011;38483;42.620;25.394;2023-02-01T07:34:58;7.83;;;5.93;;
52590;SDS011;38483;42.620;25.394;2023-02-01T07:37:25;8.57;;;4.80;;
52590;SDS011;38483;42.620;25.394;2023-02-01T07:39:52;8.93;;;5.30;;
52590;SDS011;38483;42.620;25.394;2023-02-01T07:42:19;10.27;;;5.00;;
52590;SDS011;38483;42.620;25.394;2023-02-01T07:44:46;11.27;;;7.73;;
52590;SDS011;38483;42.620;25.394;2023-02-01T07:47:13;14.10;;;9.03;;
52590;SDS011;38483;42.620;25.394;2023-02-01T07:49:40;7.83;;;5.00;;
52590;SDS011;38483;42.620;25.394;2023-02-01T07:52:07;8.27;;;5.07;;
52590;SDS011;38483;42.620;25.394;2023-02-01T07:54:35;6.23;;;4.80;;
52590;SDS011;38483;42.620;25.394;2023-02-01T07:57:02;7.93;;;5.23;;
52590;SDS011;38483;42.620;25.394;2023-02-01T07:59:29;5.10;;;3.90;;
52590;SDS011;38483;42.620;25.394;2023-02-01T08:01:56;6.50;;;4.43;;
52590;SDS011;38483;42.620;25.394;2023-02-01T08:04:26;8.83;;;5.37;;
52590;SDS011;38483;42.620;25.394;2023-02-01T08:06:55;9.27;;;5.27;;
52590;SDS011;38483;42.620;25.394;2023-02-01T08:09:22;9.40;;;6.07;;
52590;SDS011;38483;42.620;25.394;2023-02-01T08:11:49;11.80;;;7.90;;
52590;SDS011;38483;42.620;25.394;2023-02-01T08:14:16;14.97;;;9.27;;
52590;SDS011;38483;42.620;25.394;2023-02-01T08:16:43;9.10;;;5.77;;
52590;SDS011;38483;42.620;25.394;2023-02-01T08:19:31;9.70;;;6.40;;
52590;SDS011;38483;42.620;25.394;2023-02-01T08:21:58;8.50;;;6.60;;
52590;SDS011;38483;42.620;25.394;2023-02-01T08:24:29;7.63;;;4.93;;
52590;SDS011;38483;42.620;25.394;2023-02-01T08:26:56;7.87;;;5.77;;
52590;SDS011;38483;42.620;25.394;2023-02-01T08:29:24;7.63;;;4.63;;
52590;SDS011;38483;42.620;25.394;2023-02-01T08:31:53;9.73;;;5.57;;
52590;SDS011;38483;42.620;25.394;2023-02-01T08:34:21;9.70;;;5.23;;
52590;SDS011;38483;42.620;25.394;2023-02-01T08:36:49;6.53;;;4.57;;
52590;SDS011;38483;42.620;25.394;2023-02-01T08:39:18;8.00;;;4.87;;
52590;SDS011;38483;42.620;25.394;2023-02-01T08:41:45;7.37;;;5.43;;
52590;SDS011;38483;42.620;25.394;2023-02-01T08:44:32;8.07;;;5.00;;
52590;SDS011;38483;42.620;25.394;2023-02-01T08:47:00;9.03;;;6.33;;
52590;SDS011;38483;42.620;25.394;2023-02-01T08:49:29;10.87;;;7.10;;
52590;SDS011;38483;42.620;25.394;2023-02-01T08:51:56;7.87;;;5.10;;
52590;SDS011;38483;42.620;25.394;2023-02-01T08:54:29;9.53;;;5.90;;
52590;SDS011;38483;42.620;25.394;2023-02-01T08:56:56;8.57;;;5.43;;
52590;SDS011;38483;42.620;25.394;2023-02-01T08:59:23;6.23;;;4.80;;
52590;SDS011;38483;42.620;25.394;2023-02-01T09:01:53;9.50;;;5.83;;
52590;SDS011;38483;42.620;25.394;2023-02-01T09:04:20;12.80;;;8.17;;
52590;SDS011;38483;42.620;25.394;2023-02-01T09:06:47;15.77;;;8.83;;
52590;SDS011;38483;42.620;25.394;2023-02-01T09:09:14;15.20;;;10.33;;
52590;SDS011;38483;42.620;25.394;2023-02-01T09:11:41;12.13;;;7.90;;
52590;SDS011;38483;42.620;25.394;2023-02-01T09:14:08;11.33;;;7.57;;
52590;SDS011;38483;42.620;25.394;2023-02-01T09:16:35;8.30;;;5.93;;
52590;SDS011;38483;42.620;25.394;2023-02-01T09:19:02;8.13;;;6.57;;
52590;SDS011;38483;42.620;25.394;2023-02-01T09:21:49;10.53;;;6.87;;
52590;SDS011;38483;42.620;25.394;2023-02-01T09:24:16;6.23;;;5.13;;
52590;SDS011;38483;42.620;25.394;2023-02-01T09:26:44;7.23;;;5.60;;
52590;SDS011;38483;42.620;25.394;2023-02-01T09:29:14;10.33;;;7.00;;
52590;SDS011;38483;42.620;25.394;2023-02-01T09:31:41;11.40;;;7.07;;
52590;SDS011;38483;42.620;25.394;2023-02-01T09:34:19;10.03;;;6.10;;
52590;SDS011;38483;42.620;25.394;2023-02-01T09:36:46;8.93;;;5.80;;
52590;SDS011;38483;42.620;25.394;2023-02-01T09:39:13;9.40;;;6.67;;
52590;SDS011;38483;42.620;25.394;2023-02-01T09:47:21;9.87;;;6.43;;
52590;SDS011;38483;42.620;25.394;2023-02-01T09:52:32;6.90;;;5.00;;
52590;SDS011;38483;42.620;25.394;2023-02-01T09:55:36;7.13;;;4.77;;
52590;SDS011;38483;42.620;25.394;2023-02-01T09:58:29;8.23;;;4.40;;
52590;SDS011;38483;42.620;25.394;2023-02-01T10:01:19;3.80;;;3.30;;
52590;SDS011;38483;42.620;25.394;2023-02-01T10:03:49;8.97;;;5.10;;
52590;SDS011;38483;42.620;25.394;2023-02-01T10:06:43;6.60;;;3.93;;
52590;SDS011;38483;42.620;25.394;2023-02-01T10:12:20;4.47;;;2.93;;
52590;SDS011;38483;42.620;25.394;2023-02-01T10:17:51;4.80;;;3.03;;
52590;SDS011;38483;42.620;25.394;2023-02-01T10:26:42;5.50;;;3.70;;
52590;SDS011;38483;42.620;25.394;2023-02-01T10:29:36;5.43;;;4.10;;
52590;SDS011;38483;42.620;25.394;2023-02-01T10:32:13;4.57;;;3.30;;
52590;SDS011;38483;42.620;25.394;2023-02-01T10:34:48;2.50;;;2.30;;
52590;SDS011;38483;42.620;25.394;2023-02-01T10:37:29;3.80;;;3.10;;
52590;SDS011;38483;42.620;25.394;2023-02-01T10:39:59;4.83;;;3.97;;
52590;SDS011;38483;42.620;25.394;2023-02-01T10:42:49;4.80;;;4.20;;
52590;SDS011;38483;42.620;25.394;2023-02-01T10:45:20;9.43;;;4.97;;
52590;SDS011;38483;42.620;25.394;2023-02-01T10:48:05;14.17;;;6.90;;
52590;SDS011;38483;42.620;25.394;2023-02-01T10:53:17;8.60;;;5.97;;
52590;SDS011;38483;42.620;25.394;2023-02-01T10:55:52;5.70;;;4.63;;
52590;SDS011;38483;42.620;25.394;2023-02-01T10:58:21;7.77;;;5.33;;
52590;SDS011;38483;42.620;25.394;2023-02-01T11:01:02;6.17;;;3.93;;
52590;SDS011;38483;42.620;25.394;2023-02-01T11:03:37;7.13;;;4.30;;
52590;SDS011;38483;42.620;25.394;2023-02-01T11:06:11;8.23;;;5.87;;
52590;SDS011;38483;42.620;25.394;2023-02-01T11:08:55;10.80;;;5.37;;
52590;SDS011;38483;42.620;25.394;2023-02-01T11:11:29;13.07;;;7.63;;
52590;SDS011;38483;42.620;25.394;2023-02-01T11:14:10;9.27;;;5.03;;
52590;SDS011;38483;42.620;25.394;2023-02-01T11:16:43;9.77;;;6.30;;
52590;SDS011;38483;42.620;25.394;2023-02-01T11:19:16;10.83;;;9.13;;
52590;SDS011;38483;42.620;25.394;2023-02-01T11:21:44;8.90;;;6.47;;
52590;SDS011;38483;42.620;25.394;2023-02-01T11:24:22;9.93;;;6.70;;
52590;SDS011;38483;42.620;25.394;2023-02-01T11:26:50;11.30;;;6.67;;
52590;SDS011;38483;42.620;25.394;2023-02-01T11:29:21;11.10;;;5.87;;
52590;SDS011;38483;42.620;25.394;2023-02-01T11:31:58;11.60;;;8.47;;
52590;SDS011;38483;42.620;25.394;2023-02-01T11:34:38;9.23;;;6.17;;
52590;SDS011;38483;42.620;25.394;2023-02-01T11:38:10;10.87;;;8.30;;
52590;SDS011;38483;42.620;25.394;2023-02-01T11:40:55;12.00;;;8.97;;
52590;SDS011;38483;42.620;25.394;2023-02-01T11:43:51;14.63;;;8.33;;
52590;SDS011;38483;42.620;25.394;2023-02-01T11:46:20;12.67;;;8.03;;
52590;SDS011;38483;42.620;25.394;2023-02-01T11:48:54;11.10;;;7.80;;
52590;SDS011;38483;42.620;25.394;2023-02-01T11:56:40;9.00;;;6.37;;
52590;SDS011;38483;42.620;25.394;2023-02-01T11:59:31;14.23;;;7.40;;
52590;SDS011;38483;42.620;25.394;2023-02-01T12:10:47;5.77;;;4.43;;
52590;SDS011;38483;42.620;25.394;2023-02-01T12:13:27;10.73;;;5.67;;
52590;SDS011;38483;42.620;25.394;2023-02-01T12:19:02;6.37;;;4.37;;
52590;SDS011;38483;42.620;25.394;2023-02-01T12:22:14;8.20;;;3.80;;
52590;SDS011;38483;42.620;25.394;2023-02-01T12:25:01;8.40;;;5.43;;
52590;SDS011;38483;42.620;25.394;2023-02-01T12:33:06;9.23;;;7.07;;
52590;SDS011;38483;42.620;25.394;2023-02-01T12:44:08;6.03;;;4.40;;
52590;SDS011;38483;42.620;25.394;2023-02-01T12:46:40;6.50;;;5.00;;
52590;SDS011;38483;42.620;25.394;2023-02-01T12:49:14;8.63;;;4.57;;
52590;SDS011;38483;42.620;25.394;2023-02-01T12:51:46;10.23;;;7.10;;
52590;SDS011;38483;42.620;25.394;2023-02-01T12:56:57;5.87;;;4.23;;
52590;SDS011;38483;42.620;25.394;2023-02-01T13:07:41;6.33;;;3.33;;
52590;SDS011;38483;42.620;25.394;2023-02-01T13:10:29;6.10;;;3.03;;
52590;SDS011;38483;42.620;25.394;2023-02-01T13:19:18;13.47;;;7.83;;
52590;SDS011;38483;42.620;25.394;2023-02-01T13:21:52;5.30;;;4.73;;
52590;SDS011;38483;42.620;25.394;2023-02-01T13:25:10;6.13;;;3.70;;
52590;SDS011;38483;42.620;25.394;2023-02-01T13:27:26;8.97;;;5.80;;
52590;SDS011;38483;42.620;25.394;2023-02-01T13:32:37;13.20;;;5.60;;
52590;SDS011;38483;42.620;25.394;2023-02-01T13:38:36;6.47;;;3.90;;
52590;SDS011;38483;42.620;25.394;2023-02-01T13:41:32;7.77;;;3.83;;
52590;SDS011;38483;42.620;25.394;2023-02-01T13:44:11;6.50;;;3.57;;
52590;SDS011;38483;42.620;25.394;2023-02-01T13:46:55;5.17;;;3.40;;
52590;SDS011;38483;42.620;25.394;2023-02-01T13:49:26;3.00;;;1.80;;
52590;SDS011;38483;42.620;25.394;2023-02-01T13:51:55;4.03;;;2.80;;
52590;SDS011;38483;42.620;25.394;2023-02-01T13:54:29;3.07;;;2.30;;
52590;SDS011;38483;42.620;25.394;2023-02-01T13:57:03;4.60;;;2.80;;
52590;SDS011;38483;42.620;25.394;2023-02-01T14:05:04;5.33;;;2.43;;
52590;SDS011;38483;42.620;25.394;2023-02-01T14:07:35;4.27;;;2.17;;
52590;SDS011;38483;42.620;25.394;2023-02-01T14:21:20;7.77;;;4.13;;
52590;SDS011;38483;42.620;25.394;2023-02-01T14:23:57;5.37;;;3.70;;
52590;SDS011;38483;42.620;25.394;2023-02-01T14:26:54;8.90;;;3.97;;
52590;SDS011;38483;42.620;25.394;2023-02-01T14:29:30;4.57;;;2.73;;
52590;SDS011;38483;42.620;25.394;2023-02-01T14:42:25;6.60;;;2.87;;
52590;SDS011;38483;42.620;25.394;2023-02-01T14:50:34;3.60;;;2.50;;
52590;SDS011;38483;42.620;25.394;2023-02-01T15:00:54;5.90;;;2.67;;
52590;SDS011;38483;42.620;25.394;2023-02-01T15:06:02;4.83;;;2.73;;
52590;SDS011;38483;42.620;25.394;2023-02-01T15:08:33;3.60;;;2.57;;
52590;SDS011;38483;42.620;25.394;2023-02-01T15:11:06;8.03;;;3.80;;
52590;SDS011;38483;42.620;25.394;2023-02-01T15:13:40;10.30;;;4.63;;
52590;SDS011;38483;42.620;25.394;2023-02-01T15:18:44;8.30;;;4.27;;
52590;SDS011;38483;42.620;25.394;2023-02-01T15:21:15;2.20;;;1.80;;
52590;SDS011;38483;42.620;25.394;2023-02-01T15:24:13;5.70;;;3.40;;
52590;SDS011;38483;42.620;25.394;2023-02-01T15:26:44;4.93;;;3.20;;
52590;SDS011;38483;42.620;25.394;2023-02-01T15:29:12;7.30;;;3.27;;
52590;SDS011;38483;42.620;25.394;2023-02-01T15:31:41;3.27;;;2.63;;
52590;SDS011;38483;42.620;25.394;2023-02-01T15:34:11;3.63;;;2.80;;
52590;SDS011;38483;42.620;25.394;2023-02-01T15:36:39;2.20;;;2.00;;
52590;SDS011;38483;42.620;25.394;2023-02-01T15:39:24;5.50;;;2.90;;
52590;SDS011;38483;42.620;25.394;2023-02-01T15:41:58;3.43;;;2.23;;
52590;SDS011;38483;42.620;25.394;2023-02-01T15:44:39;6.10;;;4.03;;
52590;SDS011;38483;42.620;25.394;2023-02-01T15:47:16;3.70;;;2.30;;
52590;SDS011;38483;42.620;25.394;2023-02-01T15:49:50;4.77;;;3.10;;
52590;SDS011;38483;42.620;25.394;2023-02-01T15:52:27;6.53;;;3.90;;
52590;SDS011;38483;42.620;25.394;2023-02-01T15:57:49;7.17;;;3.90;;
52590;SDS011;38483;42.620;25.394;2023-02-01T16:02:52;6.70;;;3.20;;
52590;SDS011;38483;42.620;25.394;2023-02-01T16:08:13;10.50;;;5.63;;
52590;SDS011;38483;42.620;25.394;2023-02-01T16:10:41;12.97;;;6.20;;
52590;SDS011;38483;42.620;25.394;2023-02-01T16:13:10;29.90;;;15.53;;
52590;SDS011;38483;42.620;25.394;2023-02-01T16:15:41;20.60;;;9.90;;
52590;SDS011;38483;42.620;25.394;2023-02-01T16:18:09;9.73;;;5.80;;
52590;SDS011;38483;42.620;25.394;2023-02-01T16:20:37;8.77;;;5.70;;
52590;SDS011;38483;42.620;25.394;2023-02-01T16:23:06;15.53;;;5.17;;
52590;SDS011;38483;42.620;25.394;2023-02-01T16:25:35;12.90;;;6.33;;
52590;SDS011;38483;42.620;25.394;2023-02-01T16:28:02;13.83;;;8.47;;
52590;SDS011;38483;42.620;25.394;2023-02-01T16:30:29;19.83;;;9.20;;
52590;SDS011;38483;42.620;25.394;2023-02-01T16:32:57;40.57;;;19.93;;
52590;SDS011;38483;42.620;25.394;2023-02-01T16:35:29;6.37;;;3.20;;
52590;SDS011;38483;42.620;25.394;2023-02-01T16:38:02;7.90;;;4.03;;
52590;SDS011;38483;42.620;25.394;2023-02-01T16:40:39;11.13;;;5.23;;
52590;SDS011;38483;42.620;25.394;2023-02-01T16:43:25;9.87;;;5.63;;
52590;SDS011;38483;42.620;25.394;2023-02-01T16:45:53;13.13;;;7.03;;
52590;SDS011;38483;42.620;25.394;2023-02-01T16:48:25;15.77;;;7.23;;
52590;SDS011;38483;42.620;25.394;2023-02-01T16:50:56;9.10;;;5.13;;
52590;SDS011;38483;42.620;25.394;2023-02-01T16:53:24;13.47;;;8.40;;
52590;SDS011;38483;42.620;25.394;2023-02-01T16:55:54;14.13;;;8.03;;
52590;SDS011;38483;42.620;25.394;2023-02-01T16:58:21;10.97;;;7.00;;
52590;SDS011;38483;42.620;25.394;2023-02-01T17:00:48;9.60;;;5.90;;
52590;SDS011;38483;42.620;25.394;2023-02-01T17:03:16;15.23;;;7.90;;
52590;SDS011;38483;42.620;25.394;2023-02-01T17:05:44;13.73;;;8.10;;
52590;SDS011;38483;42.620;25.394;2023-02-01T17:08:17;12.87;;;7.87;;
52590;SDS011;38483;42.620;25.394;2023-02-01T17:11:00;7.23;;;4.80;;
52590;SDS011;38483;42.620;25.394;2023-02-01T17:13:28;9.87;;;5.30;;
52590;SDS011;38483;42.620;25.394;2023-02-01T17:18:45;19.23;;;11.00;;
52590;SDS011;38483;42.620;25.394;2023-02-01T17:21:16;22.03;;;11.47;;
52590;SDS011;38483;42.620;25.394;2023-02-01T17:23:44;14.37;;;9.10;;
52590;SDS011;38483;42.620;25.394;2023-02-01T17:26:13;12.83;;;7.50;;
52590;SDS011;38483;42.620;25.394;2023-02-01T17:28:40;16.10;;;9.63;;
52590;SDS011;38483;42.620;25.394;2023-02-01T17:31:08;11.50;;;7.67;;
52590;SDS011;38483;42.620;25.394;2023-02-01T17:33:42;13.20;;;8.70;;
52590;SDS011;38483;42.620;25.394;2023-02-01T17:36:14;16.10;;;8.97;;
52590;SDS011;38483;42.620;25.394;2023-02-01T17:38:47;19.67;;;8.83;;
52590;SDS011;38483;42.620;25.394;2023-02-01T17:41:30;19.27;;;12.43;;
52590;SDS011;38483;42.620;25.394;2023-02-01T17:43:58;19.97;;;12.70;;
52590;SDS011;38483;42.620;25.394;2023-02-01T17:46:25;19.57;;;12.83;;
52590;SDS011;38483;42.620;25.394;2023-02-01T17:48:53;23.93;;;14.17;;